sensor_id;sensor_type;location;lat;lon;timestamp;P1;durP1;ratioP1;P2;durP2;ratioP2
32780;SDS011;19136;47.032;15.502;2022-11-20T00:00:44;59.60;;;26.63;;
32780;SDS011;19136;47.032;15.502;2022-11-20T00:03:10;66.40;;;29.00;;
32780;SDS011;19136;47.032;15.502;2022-11-20T00:05:35;60.53;;;26.83;;
32780;SDS011;19136;47.032;15.502;2022-11-20T00:08:01;65.13;;;28.15;;
32780;SDS011;19136;47.032;15.502;2022-11-20T00:10:26;63.60;;;29.67;;
32780;SDS011;19136;47.032;15.502;2022-11-20T00:12:52;69.78;;;28.92;;
32780;SDS011;19136;47.032;15.502;2022-11-20T00:15:17;61.03;;;25.98;;
32780;SDS011;19136;47.032;15.502;2022-11-20T00:17:43;57.83;;;25.92;;
32780;SDS011;19136;47.032;15.502;2022-11-20T00:20:08;57.95;;;24.25;;
32780;SDS011;19136;47.032;15.502;2022-11-20T00:22:34;55.25;;;25.65;;
32780;SDS011;19136;47.032;15.502;2022-11-20T00:25:00;48.85;;;22.95;;
32780;SDS011;19136;47.032;15.502;2022-11-20T00:27:25;53.95;;;24.17;;
32780;SDS011;19136;47.032;15.502;2022-11-20T00:29:51;54.17;;;24.75;;
32780;SDS011;19136;47.032;15.502;2022-11-20T00:32:16;57.30;;;24.30;;
32780;SDS011;19136;47.032;15.502;2022-11-20T00:34:42;52.00;;;23.70;;
32780;SDS011;19136;47.032;15.502;2022-11-20T00:37:07;53.65;;;24.75;;
32780;SDS011;19136;47.032;15.502;2022-11-20T00:39:33;62.58;;;24.75;;
32780;SDS011;19136;47.032;15.502;2022-11-20T00:41:58;62.47;;;25.52;;
32780;SDS011;19136;47.032;15.502;2022-11-20T00:44:24;69.00;;;26.58;;
32780;SDS011;19136;47.032;15.502;2022-11-20T00:46:49;70.82;;;29.23;;
32780;SDS011;19136;47.032;15.502;2022-11-20T00:49:14;65.25;;;26.75;;
32780;SDS011;19136;47.032;15.502;2022-11-20T00:51:40;57.22;;;24.50;;
32780;SDS011;19136;47.032;15.502;2022-11-20T00:54:05;54.03;;;24.15;;
32780;SDS011;19136;47.032;15.502;2022-11-20T00:56:31;54.63;;;24.77;;
32780;SDS011;19136;47.032;15.502;2022-11-20T00:58:58;55.22;;;23.15;;
32780;SDS011;19136;47.032;15.502;2022-11-20T01:01:25;56.25;;;24.25;;
32780;SDS011;19136;47.032;15.502;2022-11-20T01:03:51;61.38;;;26.13;;
32780;SDS011;19136;47.032;15.502;2022-11-20T01:08:45;59.88;;;24.77;;
32780;SDS011;19136;47.032;15.502;2022-11-20T01:11:13;55.20;;;23.63;;
32780;SDS011;19136;47.032;15.502;2022-11-20T01:13:42;57.45;;;24.80;;
32780;SDS011;19136;47.032;15.502;2022-11-20T01:16:09;55.92;;;25.33;;
32780;SDS011;19136;47.032;15.502;2022-11-20T01:18:37;56.20;;;25.13;;
32780;SDS011;19136;47.032;15.502;2022-11-20T01:21:05;52.75;;;24.00;;
32780;SDS011;19136;47.032;15.502;2022-11-20T01:23:35;49.78;;;24.13;;
32780;SDS011;19136;47.032;15.502;2022-11-20T01:26:06;57.28;;;24.75;;
32780;SDS011;19136;47.032;15.502;2022-11-20T01:28:33;48.42;;;22.92;;
32780;SDS011;19136;47.032;15.502;2022-11-20T01:30:59;55.45;;;23.85;;
32780;SDS011;19136;47.032;15.502;2022-11-20T01:33:25;57.53;;;24.63;;
32780;SDS011;19136;47.032;15.502;2022-11-20T01:35:50;50.63;;;22.08;;
32780;SDS011;19136;47.032;15.502;2022-11-20T01:38:16;51.45;;;22.38;;
32780;SDS011;19136;47.032;15.502;2022-11-20T01:40:42;64.47;;;25.60;;
32780;SDS011;19136;47.032;15.502;2022-11-20T01:43:12;50.75;;;23.08;;
32780;SDS011;19136;47.032;15.502;2022-11-20T01:45:59;56.10;;;24.30;;
32780;SDS011;19136;47.032;15.502;2022-11-20T01:48:38;47.53;;;21.23;;
32780;SDS011;19136;47.032;15.502;2022-11-20T01:51:25;49.88;;;22.83;;
32780;SDS011;19136;47.032;15.502;2022-11-20T01:53:55;47.80;;;21.90;;
32780;SDS011;19136;47.032;15.502;2022-11-20T01:56:22;49.85;;;22.30;;
32780;SDS011;19136;47.032;15.502;2022-11-20T01:58:50;54.90;;;22.67;;
32780;SDS011;19136;47.032;15.502;2022-11-20T02:01:20;55.90;;;22.30;;
32780;SDS011;19136;47.032;15.502;2022-11-20T02:03:46;49.50;;;23.08;;
32780;SDS011;19136;47.032;15.502;2022-11-20T02:06:14;44.30;;;21.02;;
32780;SDS011;19136;47.032;15.502;2022-11-20T02:08:43;49.05;;;22.23;;
32780;SDS011;19136;47.032;15.502;2022-11-20T02:11:09;55.75;;;22.90;;
32780;SDS011;19136;47.032;15.502;2022-11-20T02:13:34;46.10;;;21.58;;
32780;SDS011;19136;47.032;15.502;2022-11-20T02:16:31;59.17;;;23.63;;
32780;SDS011;19136;47.032;15.502;2022-11-20T02:19:02;49.03;;;21.33;;
32780;SDS011;19136;47.032;15.502;2022-11-20T02:21:37;48.53;;;21.88;;
32780;SDS011;19136;47.032;15.502;2022-11-20T02:26:32;45.60;;;20.85;;
32780;SDS011;19136;47.032;15.502;2022-11-20T02:29:00;49.75;;;21.92;;
32780;SDS011;19136;47.032;15.502;2022-11-20T02:31:27;49.05;;;22.65;;
32780;SDS011;19136;47.032;15.502;2022-11-20T02:33:56;50.70;;;21.85;;
32780;SDS011;19136;47.032;15.502;2022-11-20T02:36:23;48.40;;;22.70;;
32780;SDS011;19136;47.032;15.502;2022-11-20T02:38:49;48.85;;;21.92;;
32780;SDS011;19136;47.032;15.502;2022-11-20T02:41:15;48.13;;;23.00;;
32780;SDS011;19136;47.032;15.502;2022-11-20T02:43:41;50.33;;;21.73;;
32780;SDS011;19136;47.032;15.502;2022-11-20T02:46:07;53.28;;;22.33;;
32780;SDS011;19136;47.032;15.502;2022-11-20T02:48:33;49.72;;;21.38;;
32780;SDS011;19136;47.032;15.502;2022-11-20T02:50:58;49.28;;;22.02;;
32780;SDS011;19136;47.032;15.502;2022-11-20T02:53:24;46.38;;;22.15;;
32780;SDS011;19136;47.032;15.502;2022-11-20T02:55:49;51.85;;;21.13;;
32780;SDS011;19136;47.032;15.502;2022-11-20T02:58:15;49.58;;;22.05;;
32780;SDS011;19136;47.032;15.502;2022-11-20T03:00:40;54.85;;;21.70;;
32780;SDS011;19136;47.032;15.502;2022-11-20T03:03:06;48.47;;;22.02;;
32780;SDS011;19136;47.032;15.502;2022-11-20T03:05:31;49.50;;;21.58;;
32780;SDS011;19136;47.032;15.502;2022-11-20T03:07:57;44.85;;;21.35;;
32780;SDS011;19136;47.032;15.502;2022-11-20T03:10:22;51.15;;;21.92;;
32780;SDS011;19136;47.032;15.502;2022-11-20T03:12:52;48.00;;;22.17;;
32780;SDS011;19136;47.032;15.502;2022-11-20T03:15:18;51.60;;;22.05;;
32780;SDS011;19136;47.032;15.502;2022-11-20T03:17:43;50.05;;;22.75;;
32780;SDS011;19136;47.032;15.502;2022-11-20T03:20:09;56.38;;;23.45;;
32780;SDS011;19136;47.032;15.502;2022-11-20T03:22:35;53.40;;;23.08;;
32780;SDS011;19136;47.032;15.502;2022-11-20T03:25:00;51.40;;;23.23;;
32780;SDS011;19136;47.032;15.502;2022-11-20T03:27:26;48.00;;;21.00;;
32780;SDS011;19136;47.032;15.502;2022-11-20T03:29:51;48.88;;;22.75;;
32780;SDS011;19136;47.032;15.502;2022-11-20T03:32:17;77.72;;;25.48;;
32780;SDS011;19136;47.032;15.502;2022-11-20T03:34:42;46.30;;;21.33;;
32780;SDS011;19136;47.032;15.502;2022-11-20T03:37:08;45.35;;;20.38;;
32780;SDS011;19136;47.032;15.502;2022-11-20T03:39:33;51.00;;;22.42;;
32780;SDS011;19136;47.032;15.502;2022-11-20T03:41:58;48.72;;;21.52;;
32780;SDS011;19136;47.032;15.502;2022-11-20T03:44:24;56.97;;;25.67;;
32780;SDS011;19136;47.032;15.502;2022-11-20T03:46:49;65.10;;;26.83;;
32780;SDS011;19136;47.032;15.502;2022-11-20T03:49:15;53.13;;;23.67;;
32780;SDS011;19136;47.032;15.502;2022-11-20T03:51:40;53.88;;;24.58;;
32780;SDS011;19136;47.032;15.502;2022-11-20T03:54:06;61.80;;;25.80;;
32780;SDS011;19136;47.032;15.502;2022-11-20T03:56:35;50.97;;;23.60;;
32780;SDS011;19136;47.032;15.502;2022-11-20T03:59:02;51.65;;;23.02;;
32780;SDS011;19136;47.032;15.502;2022-11-20T04:01:29;61.08;;;26.20;;
32780;SDS011;19136;47.032;15.502;2022-11-20T04:03:56;75.78;;;27.25;;
32780;SDS011;19136;47.032;15.502;2022-11-20T04:06:29;59.78;;;26.40;;
32780;SDS011;19136;47.032;15.502;2022-11-20T04:08:56;61.53;;;26.35;;
32780;SDS011;19136;47.032;15.502;2022-11-20T04:11:26;54.97;;;24.85;;
32780;SDS011;19136;47.032;15.502;2022-11-20T04:13:57;56.03;;;25.70;;
32780;SDS011;19136;47.032;15.502;2022-11-20T04:16:24;55.58;;;25.42;;
32780;SDS011;19136;47.032;15.502;2022-11-20T04:18:53;59.08;;;24.75;;
32780;SDS011;19136;47.032;15.502;2022-11-20T04:21:20;51.92;;;23.42;;
32780;SDS011;19136;47.032;15.502;2022-11-20T04:23:45;57.65;;;24.40;;
32780;SDS011;19136;47.032;15.502;2022-11-20T04:26:11;62.08;;;28.58;;
32780;SDS011;19136;47.032;15.502;2022-11-20T04:28:37;69.90;;;30.52;;
32780;SDS011;19136;47.032;15.502;2022-11-20T04:31:04;67.57;;;28.40;;
32780;SDS011;19136;47.032;15.502;2022-11-20T04:33:31;57.25;;;27.17;;
32780;SDS011;19136;47.032;15.502;2022-11-20T04:35:59;58.17;;;27.63;;
32780;SDS011;19136;47.032;15.502;2022-11-20T04:38:26;56.33;;;25.58;;
32780;SDS011;19136;47.032;15.502;2022-11-20T04:40:55;59.58;;;26.05;;
32780;SDS011;19136;47.032;15.502;2022-11-20T04:43:21;51.13;;;24.10;;
32780;SDS011;19136;47.032;15.502;2022-11-20T04:45:54;54.80;;;24.98;;
32780;SDS011;19136;47.032;15.502;2022-11-20T04:48:20;58.58;;;24.98;;
32780;SDS011;19136;47.032;15.502;2022-11-20T04:50:45;53.20;;;24.42;;
32780;SDS011;19136;47.032;15.502;2022-11-20T04:53:11;53.85;;;24.52;;
32780;SDS011;19136;47.032;15.502;2022-11-20T04:55:36;58.80;;;26.88;;
32780;SDS011;19136;47.032;15.502;2022-11-20T04:58:02;54.53;;;25.73;;
32780;SDS011;19136;47.032;15.502;2022-11-20T05:00:27;53.80;;;23.95;;
32780;SDS011;19136;47.032;15.502;2022-11-20T05:02:53;79.63;;;28.48;;
32780;SDS011;19136;47.032;15.502;2022-11-20T05:05:18;58.05;;;25.60;;
32780;SDS011;19136;47.032;15.502;2022-11-20T05:07:44;57.45;;;25.00;;
32780;SDS011;19136;47.032;15.502;2022-11-20T05:10:09;71.70;;;27.92;;
32780;SDS011;19136;47.032;15.502;2022-11-20T05:12:35;63.47;;;27.08;;
32780;SDS011;19136;47.032;15.502;2022-11-20T05:15:00;53.85;;;25.42;;
32780;SDS011;19136;47.032;15.502;2022-11-20T05:17:26;84.20;;;30.33;;
32780;SDS011;19136;47.032;15.502;2022-11-20T05:19:51;60.00;;;25.75;;
32780;SDS011;19136;47.032;15.502;2022-11-20T05:22:17;58.17;;;25.65;;
32780;SDS011;19136;47.032;15.502;2022-11-20T05:24:42;53.80;;;25.05;;
32780;SDS011;19136;47.032;15.502;2022-11-20T05:27:08;66.45;;;27.75;;
32780;SDS011;19136;47.032;15.502;2022-11-20T05:29:33;49.53;;;24.35;;
32780;SDS011;19136;47.032;15.502;2022-11-20T05:31:59;58.65;;;24.92;;
32780;SDS011;19136;47.032;15.502;2022-11-20T05:34:24;66.40;;;27.60;;
32780;SDS011;19136;47.032;15.502;2022-11-20T05:36:50;55.78;;;25.55;;
32780;SDS011;19136;47.032;15.502;2022-11-20T05:39:15;98.40;;;31.52;;
32780;SDS011;19136;47.032;15.502;2022-11-20T05:41:41;61.88;;;24.80;;
32780;SDS011;19136;47.032;15.502;2022-11-20T05:44:06;49.97;;;23.45;;
32780;SDS011;19136;47.032;15.502;2022-11-20T05:46:32;78.70;;;28.42;;
32780;SDS011;19136;47.032;15.502;2022-11-20T05:48:57;60.67;;;24.38;;
32780;SDS011;19136;47.032;15.502;2022-11-20T05:51:23;50.33;;;23.08;;
32780;SDS011;19136;47.032;15.502;2022-11-20T05:53:49;52.08;;;23.33;;
32780;SDS011;19136;47.032;15.502;2022-11-20T05:56:16;51.58;;;22.90;;
32780;SDS011;19136;47.032;15.502;2022-11-20T05:58:42;59.45;;;23.80;;
32780;SDS011;19136;47.032;15.502;2022-11-20T06:01:09;55.10;;;24.02;;
32780;SDS011;19136;47.032;15.502;2022-11-20T06:03:42;51.03;;;22.83;;
32780;SDS011;19136;47.032;15.502;2022-11-20T06:06:11;55.88;;;23.80;;
32780;SDS011;19136;47.032;15.502;2022-11-20T06:08:36;68.82;;;26.95;;
32780;SDS011;19136;47.032;15.502;2022-11-20T06:11:03;53.60;;;22.73;;
32780;SDS011;19136;47.032;15.502;2022-11-20T06:13:32;47.95;;;22.27;;
32780;SDS011;19136;47.032;15.502;2022-11-20T06:15:57;45.63;;;20.77;;
32780;SDS011;19136;47.032;15.502;2022-11-20T06:18:25;51.53;;;22.45;;
32780;SDS011;19136;47.032;15.502;2022-11-20T06:20:58;54.83;;;21.92;;
32780;SDS011;19136;47.032;15.502;2022-11-20T06:23:24;59.80;;;22.83;;
32780;SDS011;19136;47.032;15.502;2022-11-20T06:25:50;47.33;;;20.85;;
32780;SDS011;19136;47.032;15.502;2022-11-20T06:28:15;39.88;;;17.65;;
32780;SDS011;19136;47.032;15.502;2022-11-20T06:30:44;51.20;;;21.10;;
32780;SDS011;19136;47.032;15.502;2022-11-20T06:33:10;44.92;;;20.75;;
32780;SDS011;19136;47.032;15.502;2022-11-20T06:35:35;45.40;;;19.80;;
32780;SDS011;19136;47.032;15.502;2022-11-20T06:38:01;54.45;;;21.27;;
32780;SDS011;19136;47.032;15.502;2022-11-20T06:40:26;40.42;;;19.33;;
32780;SDS011;19136;47.032;15.502;2022-11-20T06:42:53;47.63;;;20.67;;
32780;SDS011;19136;47.032;15.502;2022-11-20T06:45:19;46.88;;;19.00;;
32780;SDS011;19136;47.032;15.502;2022-11-20T06:47:44;38.75;;;19.13;;
32780;SDS011;19136;47.032;15.502;2022-11-20T06:50:10;41.92;;;18.77;;
32780;SDS011;19136;47.032;15.502;2022-11-20T06:52:35;46.53;;;20.00;;
32780;SDS011;19136;47.032;15.502;2022-11-20T06:55:01;40.60;;;18.90;;
32780;SDS011;19136;47.032;15.502;2022-11-20T06:57:26;37.28;;;17.27;;
32780;SDS011;19136;47.032;15.502;2022-11-20T06:59:52;35.42;;;17.05;;
32780;SDS011;19136;47.032;15.502;2022-11-20T07:02:17;38.47;;;17.75;;
32780;SDS011;19136;47.032;15.502;2022-11-20T07:04:43;38.42;;;16.92;;
32780;SDS011;19136;47.032;15.502;2022-11-20T07:07:08;31.65;;;16.80;;
32780;SDS011;19136;47.032;15.502;2022-11-20T07:09:34;34.60;;;17.48;;
32780;SDS011;19136;47.032;15.502;2022-11-20T07:11:59;37.55;;;17.92;;
32780;SDS011;19136;47.032;15.502;2022-11-20T07:14:25;41.45;;;17.70;;
32780;SDS011;19136;47.032;15.502;2022-11-20T07:16:50;34.20;;;17.13;;
32780;SDS011;19136;47.032;15.502;2022-11-20T07:19:16;34.03;;;16.92;;
32780;SDS011;19136;47.032;15.502;2022-11-20T07:21:41;39.75;;;17.58;;
32780;SDS011;19136;47.032;15.502;2022-11-20T07:24:07;38.60;;;17.35;;
32780;SDS011;19136;47.032;15.502;2022-11-20T07:26:32;37.58;;;18.27;;
32780;SDS011;19136;47.032;15.502;2022-11-20T07:28:58;39.70;;;17.80;;
32780;SDS011;19136;47.032;15.502;2022-11-20T07:31:23;39.42;;;18.15;;
32780;SDS011;19136;47.032;15.502;2022-11-20T07:33:49;38.60;;;19.05;;
32780;SDS011;19136;47.032;15.502;2022-11-20T07:36:15;39.28;;;17.95;;
32780;SDS011;19136;47.032;15.502;2022-11-20T07:38:40;38.83;;;18.38;;
32780;SDS011;19136;47.032;15.502;2022-11-20T07:41:06;39.70;;;18.13;;
32780;SDS011;19136;47.032;15.502;2022-11-20T07:43:31;37.47;;;19.02;;
32780;SDS011;19136;47.032;15.502;2022-11-20T07:45:57;42.05;;;18.27;;
32780;SDS011;19136;47.032;15.502;2022-11-20T07:48:24;38.67;;;18.25;;
32780;SDS011;19136;47.032;15.502;2022-11-20T07:50:52;41.85;;;18.63;;
32780;SDS011;19136;47.032;15.502;2022-11-20T07:53:18;33.50;;;17.27;;
32780;SDS011;19136;47.032;15.502;2022-11-20T07:55:45;39.00;;;17.08;;
32780;SDS011;19136;47.032;15.502;2022-11-20T07:58:11;38.63;;;17.88;;
32780;SDS011;19136;47.032;15.502;2022-11-20T08:00:37;34.30;;;16.88;;
32780;SDS011;19136;47.032;15.502;2022-11-20T08:03:03;35.50;;;17.83;;
32780;SDS011;19136;47.032;15.502;2022-11-20T08:05:29;34.42;;;17.23;;
32780;SDS011;19136;47.032;15.502;2022-11-20T08:07:55;34.83;;;17.55;;
32780;SDS011;19136;47.032;15.502;2022-11-20T08:10:20;35.55;;;17.27;;
32780;SDS011;19136;47.032;15.502;2022-11-20T08:12:49;37.55;;;17.45;;
32780;SDS011;19136;47.032;15.502;2022-11-20T08:15:35;39.15;;;18.67;;
32780;SDS011;19136;47.032;15.502;2022-11-20T08:18:02;40.45;;;17.40;;
32780;SDS011;19136;47.032;15.502;2022-11-20T08:20:31;37.03;;;18.67;;
32780;SDS011;19136;47.032;15.502;2022-11-20T08:22:58;40.22;;;18.90;;
32780;SDS011;19136;47.032;15.502;2022-11-20T08:25:25;36.40;;;17.23;;
32780;SDS011;19136;47.032;15.502;2022-11-20T08:27:51;37.05;;;17.00;;
32780;SDS011;19136;47.032;15.502;2022-11-20T08:30:16;36.45;;;17.88;;
32780;SDS011;19136;47.032;15.502;2022-11-20T08:32:42;34.28;;;16.30;;
32780;SDS011;19136;47.032;15.502;2022-11-20T08:35:08;36.55;;;17.50;;
32780;SDS011;19136;47.032;15.502;2022-11-20T08:37:33;33.15;;;17.00;;
32780;SDS011;19136;47.032;15.502;2022-11-20T08:39:59;35.92;;;17.70;;
32780;SDS011;19136;47.032;15.502;2022-11-20T08:42:24;40.78;;;23.05;;
32780;SDS011;19136;47.032;15.502;2022-11-20T08:44:50;269.20;;;99.10;;
32780;SDS011;19136;47.032;15.502;2022-11-20T08:47:15;665.90;;;182.07;;
32780;SDS011;19136;47.032;15.502;2022-11-20T08:49:40;452.60;;;107.95;;
32780;SDS011;19136;47.032;15.502;2022-11-20T08:52:06;140.57;;;41.83;;
32780;SDS011;19136;47.032;15.502;2022-11-20T08:54:31;354.95;;;89.10;;
32780;SDS011;19136;47.032;15.502;2022-11-20T08:56:57;227.60;;;61.80;;
32780;SDS011;19136;47.032;15.502;2022-11-20T08:59:22;63.50;;;26.10;;
32780;SDS011;19136;47.032;15.502;2022-11-20T09:01:48;50.08;;;21.80;;
32780;SDS011;19136;47.032;15.502;2022-11-20T09:04:13;161.40;;;52.00;;
32780;SDS011;19136;47.032;15.502;2022-11-20T09:06:39;54.40;;;22.65;;
32780;SDS011;19136;47.032;15.502;2022-11-20T09:09:05;43.67;;;20.17;;
32780;SDS011;19136;47.032;15.502;2022-11-20T09:11:31;43.65;;;20.38;;
32780;SDS011;19136;47.032;15.502;2022-11-20T09:13:57;49.88;;;22.88;;
32780;SDS011;19136;47.032;15.502;2022-11-20T09:16:22;53.92;;;23.83;;
32780;SDS011;19136;47.032;15.502;2022-11-20T09:18:49;43.42;;;22.27;;
32780;SDS011;19136;47.032;15.502;2022-11-20T09:21:15;41.88;;;22.30;;
32780;SDS011;19136;47.032;15.502;2022-11-20T09:23:41;39.20;;;19.20;;
32780;SDS011;19136;47.032;15.502;2022-11-20T09:26:11;38.80;;;18.85;;
32780;SDS011;19136;47.032;15.502;2022-11-20T09:28:37;38.03;;;19.95;;
32780;SDS011;19136;47.032;15.502;2022-11-20T09:31:07;39.13;;;19.73;;
32780;SDS011;19136;47.032;15.502;2022-11-20T09:33:33;39.65;;;19.65;;
32780;SDS011;19136;47.032;15.502;2022-11-20T09:35:59;40.70;;;20.90;;
32780;SDS011;19136;47.032;15.502;2022-11-20T09:38:27;42.35;;;21.60;;
32780;SDS011;19136;47.032;15.502;2022-11-20T09:40:57;48.85;;;21.38;;
32780;SDS011;19136;47.032;15.502;2022-11-20T09:43:30;45.07;;;22.73;;
32780;SDS011;19136;47.032;15.502;2022-11-20T09:51:44;44.83;;;22.30;;
32780;SDS011;19136;47.032;15.502;2022-11-20T09:54:18;39.30;;;21.05;;
32780;SDS011;19136;47.032;15.502;2022-11-20T09:56:45;42.13;;;21.67;;
32780;SDS011;19136;47.032;15.502;2022-11-20T10:01:53;39.58;;;20.58;;
32780;SDS011;19136;47.032;15.502;2022-11-20T10:04:20;44.58;;;22.10;;
32780;SDS011;19136;47.032;15.502;2022-11-20T10:07:06;41.17;;;21.05;;
32780;SDS011;19136;47.032;15.502;2022-11-20T10:09:51;39.67;;;20.35;;
32780;SDS011;19136;47.032;15.502;2022-11-20T10:20:27;41.03;;;21.17;;
32780;SDS011;19136;47.032;15.502;2022-11-20T10:23:14;39.95;;;18.92;;
32780;SDS011;19136;47.032;15.502;2022-11-20T10:26:02;36.40;;;19.45;;
32780;SDS011;19136;47.032;15.502;2022-11-20T10:29:12;36.38;;;19.08;;
32780;SDS011;19136;47.032;15.502;2022-11-20T10:31:38;35.08;;;18.50;;
32780;SDS011;19136;47.032;15.502;2022-11-20T10:34:17;41.83;;;19.40;;
32780;SDS011;19136;47.032;15.502;2022-11-20T10:37:12;35.72;;;18.92;;
32780;SDS011;19136;47.032;15.502;2022-11-20T10:42:24;34.58;;;19.27;;
32780;SDS011;19136;47.032;15.502;2022-11-20T10:45:02;32.90;;;18.52;;
32780;SDS011;19136;47.032;15.502;2022-11-20T10:47:58;35.60;;;18.27;;
32780;SDS011;19136;47.032;15.502;2022-11-20T10:50:39;36.78;;;18.15;;
32780;SDS011;19136;47.032;15.502;2022-11-20T10:58:22;33.20;;;18.60;;
32780;SDS011;19136;47.032;15.502;2022-11-20T11:01:06;30.70;;;17.63;;
32780;SDS011;19136;47.032;15.502;2022-11-20T11:06:10;32.28;;;18.30;;
32780;SDS011;19136;47.032;15.502;2022-11-20T11:08:40;33.45;;;18.63;;
32780;SDS011;19136;47.032;15.502;2022-11-20T11:14:07;31.02;;;16.63;;
32780;SDS011;19136;47.032;15.502;2022-11-20T11:16:48;38.08;;;20.35;;
32780;SDS011;19136;47.032;15.502;2022-11-20T11:19:23;30.30;;;17.73;;
32780;SDS011;19136;47.032;15.502;2022-11-20T11:21:53;32.45;;;18.05;;
32780;SDS011;19136;47.032;15.502;2022-11-20T11:27:01;30.35;;;17.20;;
32780;SDS011;19136;47.032;15.502;2022-11-20T11:29:30;37.72;;;18.05;;
32780;SDS011;19136;47.032;15.502;2022-11-20T11:32:03;33.75;;;19.35;;
32780;SDS011;19136;47.032;15.502;2022-11-20T11:35:04;26.92;;;16.08;;
32780;SDS011;19136;47.032;15.502;2022-11-20T11:37:35;26.48;;;16.02;;
32780;SDS011;19136;47.032;15.502;2022-11-20T11:40:05;34.47;;;18.58;;
32780;SDS011;19136;47.032;15.502;2022-11-20T11:42:34;28.30;;;15.93;;
32780;SDS011;19136;47.032;15.502;2022-11-20T11:44:59;27.80;;;15.32;;
32780;SDS011;19136;47.032;15.502;2022-11-20T11:50:01;29.08;;;17.08;;
32780;SDS011;19136;47.032;15.502;2022-11-20T11:55:30;28.00;;;15.68;;
32780;SDS011;19136;47.032;15.502;2022-11-20T11:58:06;24.58;;;13.23;;
32780;SDS011;19136;47.032;15.502;2022-11-20T12:00:34;20.13;;;11.57;;
32780;SDS011;19136;47.032;15.502;2022-11-20T12:03:19;18.17;;;10.60;;
32780;SDS011;19136;47.032;15.502;2022-11-20T12:05:51;16.08;;;9.20;;
32780;SDS011;19136;47.032;15.502;2022-11-20T12:08:23;11.27;;;6.28;;
32780;SDS011;19136;47.032;15.502;2022-11-20T12:16:18;14.75;;;9.20;;
32780;SDS011;19136;47.032;15.502;2022-11-20T12:18:45;13.60;;;8.43;;
32780;SDS011;19136;47.032;15.502;2022-11-20T12:26:40;11.38;;;7.05;;
32780;SDS011;19136;47.032;15.502;2022-11-20T12:34:42;12.75;;;7.47;;
32780;SDS011;19136;47.032;15.502;2022-11-20T12:39:49;11.13;;;7.60;;
32780;SDS011;19136;47.032;15.502;2022-11-20T12:42:23;10.80;;;6.00;;
32780;SDS011;19136;47.032;15.502;2022-11-20T12:45:38;8.48;;;5.90;;
32780;SDS011;19136;47.032;15.502;2022-11-20T12:56:06;8.57;;;5.57;;
32780;SDS011;19136;47.032;15.502;2022-11-20T13:01:46;9.13;;;6.13;;
32780;SDS011;19136;47.032;15.502;2022-11-20T13:04:18;9.40;;;6.13;;
32780;SDS011;19136;47.032;15.502;2022-11-20T13:06:55;7.45;;;5.05;;
32780;SDS011;19136;47.032;15.502;2022-11-20T13:09:22;7.60;;;4.95;;
32780;SDS011;19136;47.032;15.502;2022-11-20T13:17:43;7.53;;;5.35;;
32780;SDS011;19136;47.032;15.502;2022-11-20T13:20:14;7.00;;;5.18;;
32780;SDS011;19136;47.032;15.502;2022-11-20T13:22:45;7.50;;;5.28;;
32780;SDS011;19136;47.032;15.502;2022-11-20T13:25:30;8.15;;;5.57;;
32780;SDS011;19136;47.032;15.502;2022-11-20T13:28:02;10.20;;;6.65;;
32780;SDS011;19136;47.032;15.502;2022-11-20T13:30:29;12.00;;;7.25;;
32780;SDS011;19136;47.032;15.502;2022-11-20T13:33:04;11.68;;;7.00;;
32780;SDS011;19136;47.032;15.502;2022-11-20T13:35:35;12.50;;;7.40;;
32780;SDS011;19136;47.032;15.502;2022-11-20T13:38:07;10.07;;;7.13;;
32780;SDS011;19136;47.032;15.502;2022-11-20T13:40:59;11.20;;;6.97;;
32780;SDS011;19136;47.032;15.502;2022-11-20T13:43:46;10.38;;;5.68;;
32780;SDS011;19136;47.032;15.502;2022-11-20T13:46:12;8.25;;;5.80;;
32780;SDS011;19136;47.032;15.502;2022-11-20T13:56:34;7.85;;;5.30;;
32780;SDS011;19136;47.032;15.502;2022-11-20T14:01:49;9.63;;;6.18;;
32780;SDS011;19136;47.032;15.502;2022-11-20T14:04:19;10.55;;;6.85;;
32780;SDS011;19136;47.032;15.502;2022-11-20T14:06:51;10.10;;;5.60;;
32780;SDS011;19136;47.032;15.502;2022-11-20T14:09:27;8.60;;;5.95;;
32780;SDS011;19136;47.032;15.502;2022-11-20T14:11:54;8.68;;;5.60;;
32780;SDS011;19136;47.032;15.502;2022-11-20T14:14:24;11.65;;;6.40;;
32780;SDS011;19136;47.032;15.502;2022-11-20T14:17:07;10.27;;;6.45;;
32780;SDS011;19136;47.032;15.502;2022-11-20T14:19:34;8.85;;;6.47;;
32780;SDS011;19136;47.032;15.502;2022-11-20T14:24:46;9.18;;;6.10;;
32780;SDS011;19136;47.032;15.502;2022-11-20T14:27:16;10.57;;;6.90;;
32780;SDS011;19136;47.032;15.502;2022-11-20T14:29:44;17.48;;;7.07;;
32780;SDS011;19136;47.032;15.502;2022-11-20T14:32:13;12.13;;;7.38;;
32780;SDS011;19136;47.032;15.502;2022-11-20T14:34:41;9.73;;;6.22;;
32780;SDS011;19136;47.032;15.502;2022-11-20T14:37:13;12.68;;;7.53;;
32780;SDS011;19136;47.032;15.502;2022-11-20T14:39:54;10.38;;;6.97;;
32780;SDS011;19136;47.032;15.502;2022-11-20T14:42:25;11.40;;;7.18;;
32780;SDS011;19136;47.032;15.502;2022-11-20T14:44:55;12.32;;;7.55;;
32780;SDS011;19136;47.032;15.502;2022-11-20T14:47:26;10.73;;;6.95;;
32780;SDS011;19136;47.032;15.502;2022-11-20T14:49:54;12.43;;;6.70;;
32780;SDS011;19136;47.032;15.502;2022-11-20T14:52:22;13.93;;;8.27;;
32780;SDS011;19136;47.032;15.502;2022-11-20T14:57:29;13.90;;;7.90;;
32780;SDS011;19136;47.032;15.502;2022-11-20T15:00:18;13.20;;;7.43;;
32780;SDS011;19136;47.032;15.502;2022-11-20T15:02:46;9.57;;;6.53;;
32780;SDS011;19136;47.032;15.502;2022-11-20T15:05:16;11.98;;;7.25;;
32780;SDS011;19136;47.032;15.502;2022-11-20T15:07:46;10.32;;;7.00;;
32780;SDS011;19136;47.032;15.502;2022-11-20T15:10:34;15.02;;;8.23;;
32780;SDS011;19136;47.032;15.502;2022-11-20T15:13:00;19.35;;;9.30;;
32780;SDS011;19136;47.032;15.502;2022-11-20T15:15:29;15.80;;;8.18;;
32780;SDS011;19136;47.032;15.502;2022-11-20T15:17:58;16.17;;;8.88;;
32780;SDS011;19136;47.032;15.502;2022-11-20T15:20:26;14.93;;;9.18;;
32780;SDS011;19136;47.032;15.502;2022-11-20T15:22:55;14.90;;;9.15;;
32780;SDS011;19136;47.032;15.502;2022-11-20T15:25:20;17.88;;;9.85;;
32780;SDS011;19136;47.032;15.502;2022-11-20T15:27:48;14.90;;;9.15;;
32780;SDS011;19136;47.032;15.502;2022-11-20T15:30:25;18.13;;;10.40;;
32780;SDS011;19136;47.032;15.502;2022-11-20T15:33:11;18.17;;;11.02;;
32780;SDS011;19136;47.032;15.502;2022-11-20T15:35:38;20.50;;;11.02;;
32780;SDS011;19136;47.032;15.502;2022-11-20T15:38:05;16.70;;;9.88;;
32780;SDS011;19136;47.032;15.502;2022-11-20T15:40:31;22.08;;;12.10;;
32780;SDS011;19136;47.032;15.502;2022-11-20T15:42:57;17.73;;;10.88;;
32780;SDS011;19136;47.032;15.502;2022-11-20T15:45:38;19.05;;;11.75;;
32780;SDS011;19136;47.032;15.502;2022-11-20T15:48:16;18.98;;;10.63;;
32780;SDS011;19136;47.032;15.502;2022-11-20T15:50:49;19.80;;;10.95;;
32780;SDS011;19136;47.032;15.502;2022-11-20T15:53:18;19.65;;;11.80;;
32780;SDS011;19136;47.032;15.502;2022-11-20T15:55:44;19.83;;;11.55;;